Time;durP1;ratioP1;P1;durP2;ratioP2;P2;SDS_P1;SDS_P2;PMS_P1;PMS_P2;Temp;Humidity;BMP_temperature;BMP_pressure;BME280_temperature;BME280_humidity;BME280_pressure;Samples;Min_cycle;Max_cycle;Signal;HPM_P1;HPM_P2
2023/09/27 00:02:55;;;;;;;12.37;8.43;;;;;;;22.25;59.68;101421.34;2319005;76;50245;-76
2023/09/27 00:05:57;;;;;;;14.28;8.08;;;;;;;22.25;59.75;101417.30;2291974;76;51547;-75
2023/09/27 00:08:59;;;;;;;12.20;7.80;;;;;;;22.27;59.66;101422.48;2291342;76;51496;-75
2023/09/27 00:12:04;;;;;;;11.57;7.72;;;;;;;22.24;59.83;101416.95;2318638;76;51409;-76
2023/09/27 00:15:08;;;;;;;11.43;8.43;;;;;;;22.25;59.68;101419.16;2291689;76;22234;-77
2023/09/27 00:18:13;;;;;;;15.08;7.75;;;;;;;22.24;59.91;101415.61;2292579;76;50293;-76
2023/09/27 00:21:16;;;;;;;11.50;7.92;;;;;;;22.23;59.79;101419.34;2292880;76;22265;-75
2023/09/27 00:24:25;;;;;;;13.62;7.83;;;;;;;22.25;59.76;101424.03;2317593;76;49968;-76
2023/09/27 00:27:33;;;;;;;11.78;8.45;;;;;;;22.25;59.74;101422.69;2317538;76;22201;-75
2023/09/27 00:30:43;;;;;;;15.60;8.68;;;;;;;22.24;59.82;101425.04;2293015;76;50104;-76
2023/09/27 00:33:54;;;;;;;12.95;8.25;;;;;;;22.23;59.89;101423.38;2319026;76;21610;-78
2023/09/27 00:36:57;;;;;;;14.90;9.05;;;;;;;22.24;59.83;101430.95;2320990;75;22688;-75
2023/09/27 00:40:03;;;;;;;13.10;8.45;;;;;;;22.23;59.86;101427.42;2335138;75;22230;-75
2023/09/27 00:43:10;;;;;;;13.90;8.23;;;;;;;22.24;59.91;101422.86;2320711;76;22325;-77
2023/09/27 00:46:13;;;;;;;10.20;7.83;;;;;;;22.24;59.82;101431.78;2308684;76;52448;-76
2023/09/27 00:49:19;;;;;;;11.53;8.65;;;;;;;22.24;59.85;101418.30;2320861;76;50768;-79
2023/09/27 00:52:23;;;;;;;12.15;8.08;;;;;;;22.23;59.88;101419.34;2320721;75;22965;-76
2023/09/27 00:55:28;;;;;;;15.53;7.87;;;;;;;22.23;59.85;101420.69;2318990;76;21752;-76
2023/09/27 00:58:40;;;;;;;15.73;8.33;;;;;;;22.23;59.80;101427.42;2319535;75;51120;-77
2023/09/27 01:01:44;;;;;;;14.58;8.50;;;;;;;22.23;59.88;101423.90;2291400;76;51742;-76
2023/09/27 01:04:51;;;;;;;13.55;8.40;;;;;;;22.24;59.75;101418.82;2310677;77;22002;-77
2023/09/27 01:07:59;;;;;;;14.80;7.62;;;;;;;22.22;59.83;101414.98;2303672;77;22202;-76
2023/09/27 01:11:04;;;;;;;11.08;7.95;;;;;;;22.23;59.93;101417.98;2303238;76;22248;-78
2023/09/27 01:14:10;;;;;;;12.33;8.23;;;;;;;22.22;59.85;101409.59;2306437;77;51444;-76
2023/09/27 01:17:17;;;;;;;13.45;8.43;;;;;;;22.22;59.89;101416.33;2305973;75;22274;-76
2023/09/27 01:20:23;;;;;;;13.75;8.18;;;;;;;22.21;59.85;101407.91;2306744;77;22440;-75
2023/09/27 01:23:26;;;;;;;10.88;7.47;;;;;;;22.22;59.85;101412.78;2285091;77;51689;-77
2023/09/27 01:26:33;;;;;;;11.95;7.90;;;;;;;22.23;59.90;101413.12;2285951;77;51485;-75
2023/09/27 01:29:39;;;;;;;10.60;8.13;;;;;;;22.22;59.86;101425.77;2314517;76;22348;-78
2023/09/27 01:32:44;;;;;;;12.33;8.03;;;;;;;22.21;59.83;101424.08;2295115;76;22381;-78
2023/09/27 01:35:53;;;;;;;9.95;8.25;;;;;;;22.22;59.85;101424.42;2318832;75;22269;-75
2023/09/27 01:39:02;;;;;;;11.00;7.70;;;;;;;22.22;59.93;101424.42;2280616;77;22227;-76
2023/09/27 01:42:09;;;;;;;13.72;8.38;;;;;;;22.22;59.89;101428.47;2276381;78;21894;-78
2023/09/27 01:45:19;;;;;;;12.18;8.60;;;;;;;22.21;59.94;101431.33;2279255;78;21824;-76
2023/09/27 01:48:30;;;;;;;10.35;7.78;;;;;;;22.21;59.93;101425.94;2276209;78;22475;-75
2023/09/27 01:51:43;;;;;;;12.13;8.00;;;;;;;22.20;59.87;101426.46;2279467;78;22300;-75
2023/09/27 01:54:47;;;;;;;10.13;7.75;;;;;;;22.19;59.98;101423.42;2275629;78;22239;-77
2023/09/27 01:57:53;;;;;;;11.50;7.42;;;;;;;22.21;59.86;101420.55;2253919;78;51359;-76
2023/09/27 02:01:06;;;;;;;12.55;8.75;;;;;;;22.20;59.94;101417.03;2234632;77;51587;-76
2023/09/27 02:04:27;;;;;;;12.20;8.40;;;;;;;22.20;59.88;101417.03;2260190;77;50577;-78
2023/09/27 02:07:40;;;;;;;13.13;8.50;;;;;;;22.20;59.84;101423.77;2254879;77;22099;-76
2023/09/27 02:10:48;;;;;;;10.95;7.53;;;;;;;22.20;59.83;101423.77;2233364;77;50590;-75
2023/09/27 02:13:56;;;;;;;10.98;8.30;;;;;;;22.20;59.88;101421.59;2248939;78;21789;-76
2023/09/27 02:17:03;;;;;;;12.33;8.00;;;;;;;22.19;59.88;101413.98;2283431;76;22420;-76
2023/09/27 02:20:11;;;;;;;10.10;8.40;;;;;;;22.19;59.97;101413.98;2296890;76;22329;-76
2023/09/27 02:23:18;;;;;;;10.55;8.03;;;;;;;22.20;59.94;101408.11;2299427;76;21653;-76
2023/09/27 02:26:28;;;;;;;10.00;7.70;;;;;;;22.19;59.96;101404.55;2298630;76;22019;-75
2023/09/27 02:29:35;;;;;;;11.95;7.70;;;;;;;22.18;59.88;101403.69;2310948;76;21968;-76
2023/09/27 02:32:48;;;;;;;11.75;7.35;;;;;;;22.19;59.97;101404.55;2273293;76;22414;-76
2023/09/27 02:36:08;;;;;;;11.05;8.18;;;;;;;22.19;59.97;101404.55;2268299;77;22429;-76
2023/09/27 02:39:16;;;;;;;10.45;7.58;;;;;;;22.20;59.94;101418.89;2184555;80;21725;-76
2023/09/27 02:42:23;;;;;;;12.45;7.85;;;;;;;22.19;59.89;101416.69;2180683;80;22476;-76
2023/09/27 02:45:29;;;;;;;9.75;7.53;;;;;;;22.20;59.89;101425.63;2183150;80;22256;-74
2023/09/27 02:48:36;;;;;;;11.45;7.97;;;;;;;22.17;59.93;101425.47;2182471;80;21720;-75
2023/09/27 02:51:40;;;;;;;11.45;7.80;;;;;;;22.18;59.99;101431.16;2156139;81;49902;-77
2023/09/27 02:54:47;;;;;;;11.10;7.60;;;;;;;22.17;59.92;101431.69;2181557;80;22177;-75
2023/09/27 02:57:56;;;;;;;12.35;7.70;;;;;;;22.18;59.96;101429.30;2179075;79;22388;-76
2023/09/27 03:01:01;;;;;;;9.48;7.22;;;;;;;22.18;59.91;101429.81;2223111;79;22360;-76
2023/09/27 03:04:10;;;;;;;9.88;7.95;;;;;;;22.18;59.95;101425.77;2244151;79;22368;-79
2023/09/27 03:07:17;;;;;;;8.75;7.10;;;;;;;22.18;59.91;101433.86;2221330;79;23263;-75
2023/09/27 03:10:25;;;;;;;11.50;7.85;;;;;;;22.18;59.92;101441.43;2285977;75;22020;-77
2023/09/27 03:13:36;;;;;;;13.68;7.75;;;;;;;22.18;59.96;101435.20;2320151;76;50791;-77
2023/09/27 03:16:42;;;;;;;10.45;7.92;;;;;;;22.17;59.92;101426.30;2318375;75;22289;-79
2023/09/27 03:19:54;;;;;;;10.20;7.70;;;;;;;22.16;59.90;101427.81;2318313;75;52451;-75
2023/09/27 03:23:01;;;;;;;13.60;8.05;;;;;;;22.17;59.92;101423.59;2320410;76;22286;-76
2023/09/27 03:26:10;;;;;;;10.00;7.80;;;;;;;22.16;60.03;101423.25;2318296;75;22325;-76
2023/09/27 03:29:23;;;;;;;11.08;7.55;;;;;;;22.17;59.92;101428.16;2303209;76;21840;-76
2023/09/27 03:32:28;;;;;;;10.68;8.15;;;;;;;22.16;59.91;101419.21;2277594;76;51581;-76
2023/09/27 03:35:34;;;;;;;10.08;7.60;;;;;;;22.17;59.89;101407.94;2303360;76;21937;-77
2023/09/27 03:38:42;;;;;;;8.83;7.22;;;;;;;22.17;59.86;101410.13;2278493;76;21986;-76
2023/09/27 03:41:45;;;;;;;10.05;7.62;;;;;;;22.17;59.92;101416.03;2277986;77;51778;-75
2023/09/27 03:44:54;;;;;;;10.23;7.53;;;;;;;22.15;59.90;101417.55;2277884;76;51481;-76
2023/09/27 03:47:58;;;;;;;9.78;7.67;;;;;;;22.16;59.83;101420.56;2299809;76;22108;-80
2023/09/27 03:51:00;;;;;;;9.20;7.58;;;;;;;22.17;59.83;101410.64;2278106;76;22366;-77
2023/09/27 03:54:02;;;;;;;11.70;7.75;;;;;;;22.15;59.86;101408.12;2276622;77;50103;-77
2023/09/27 03:57:05;;;;;;;10.60;7.28;;;;;;;22.16;59.87;101408.95;2294025;75;49848;-77
2023/09/27 04:00:13;;;;;;;11.88;7.50;;;;;;;22.15;59.89;101413.52;2307023;76;51702;-77
2023/09/27 04:03:12;;;;;;;10.18;7.60;;;;;;;22.15;59.89;101418.90;2332412;75;23134;-77
2023/09/27 04:06:14;;;;;;;9.33;7.28;;;;;;;22.15;59.84;101424.81;2263224;76;49773;-77
2023/09/27 04:09:17;;;;;;;13.45;7.30;;;;;;;22.16;59.89;101415.69;2333329;76;51434;-77
2023/09/27 04:12:19;;;;;;;8.48;7.58;;;;;;;22.16;59.86;101414.34;2318899;76;50769;-76
2023/09/27 04:15:21;;;;;;;8.40;7.42;;;;;;;22.16;59.81;101418.38;2319111;76;51427;-77
2023/09/27 04:18:23;;;;;;;9.75;7.65;;;;;;;22.15;59.82;101412.16;2305568;76;50613;-77
2023/09/27 04:21:26;;;;;;;9.50;7.42;;;;;;;22.15;59.81;101418.07;2305518;76;49914;-77
2023/09/27 04:24:28;;;;;;;8.78;7.37;;;;;;;22.15;59.81;101424.81;2318913;75;51569;-76
2023/09/27 04:27:30;;;;;;;11.93;7.58;;;;;;;22.14;59.78;101428.02;2279563;76;50369;-77
2023/09/27 04:30:32;;;;;;;10.43;7.35;;;;;;;22.14;59.78;101429.86;2305604;75;50361;-77
2023/09/27 04:33:35;;;;;;;12.30;7.50;;;;;;;22.13;59.80;101431.72;2306714;76;51259;-76
2023/09/27 04:36:37;;;;;;;11.95;8.10;;;;;;;22.15;59.82;101438.29;2305434;76;50141;-76
2023/09/27 04:39:39;;;;;;;8.30;7.30;;;;;;;22.15;59.76;101435.07;2305459;75;50732;-76
2023/09/27 04:42:42;;;;;;;8.13;6.90;;;;;;;22.15;59.85;101451.77;2305303;75;50432;-77
2023/09/27 04:45:44;;;;;;;9.43;7.20;;;;;;;22.16;59.82;101459.64;2319086;76;51610;-77
2023/09/27 04:48:46;;;;;;;9.55;7.22;;;;;;;22.17;60.07;101471.29;2319015;76;51500;-76
2023/09/27 04:51:49;;;;;;;13.78;7.40;;;;;;;22.16;60.20;101470.94;2333373;76;51622;-77
2023/09/27 04:54:56;;;;;;;10.20;7.35;;;;;;;22.16;60.33;101473.64;2308056;76;51423;-76
2023/09/27 04:57:58;;;;;;;15.28;8.08;;;;;;;22.18;60.48;101475.64;2252478;76;51217;-76
2023/09/27 05:01:01;;;;;;;12.20;6.62;;;;;;;22.18;60.43;101471.08;2317406;76;50333;-76
2023/09/27 05:04:03;;;;;;;12.90;7.00;;;;;;;22.21;60.48;101469.91;2318087;75;50720;-75
2023/09/27 05:07:05;;;;;;;10.95;6.87;;;;;;;22.21;60.72;101467.73;2292381;76;51394;-76
2023/09/27 05:10:08;;;;;;;15.13;7.12;;;;;;;22.20;60.55;101478.20;2306200;76;49697;-76
2023/09/27 05:13:10;;;;;;;19.52;7.53;;;;;;;22.20;60.65;101483.59;2260475;78;51674;-77
2023/09/27 05:16:12;;;;;;;14.23;7.15;;;;;;;22.22;60.69;101483.73;2255703;77;51456;-78
2023/09/27 05:19:15;;;;;;;16.62;7.17;;;;;;;22.21;60.69;101495.52;2280834;77;50700;-78
2023/09/27 05:22:20;;;;;;;12.88;7.28;;;;;;;22.22;60.82;101493.16;2231452;78;52530;-76
2023/09/27 05:25:22;;;;;;;17.48;7.12;;;;;;;22.21;60.86;101504.95;2293268;76;51590;-77
2023/09/27 05:28:24;;;;;;;17.27;6.92;;;;;;;22.20;61.02;101505.98;2324224;76;51524;-77
2023/09/27 05:31:28;;;;;;;12.25;6.92;;;;;;;22.20;61.09;101515.94;2306185;76;51621;-77
2023/09/27 05:34:31;;;;;;;13.20;7.70;;;;;;;22.20;60.98;101515.94;2319316;76;50308;-78
2023/09/27 05:37:33;;;;;;;12.45;6.78;;;;;;;22.19;61.02;101516.42;2307136;76;51653;-77
2023/09/27 05:40:35;;;;;;;13.38;7.22;;;;;;;22.18;61.05;101518.26;2333462;75;51423;-77
2023/09/27 05:43:38;;;;;;;17.15;8.05;;;;;;;22.18;60.96;101518.26;2305595;76;51515;-77
2023/09/27 05:46:41;;;;;;;14.90;7.00;;;;;;;22.20;60.85;101522.16;2280500;76;51718;-77
2023/09/27 05:49:43;;;;;;;20.12;8.20;;;;;;;22.18;61.06;101522.30;2319297;76;50738;-78
2023/09/27 05:52:46;;;;;;;23.18;7.75;;;;;;;22.21;61.07;101524.34;2305392;76;51547;-77
2023/09/27 05:55:48;;;;;;;21.65;7.75;;;;;;;22.23;61.00;101531.22;2333251;76;50857;-78
2023/09/27 05:58:51;;;;;;;23.77;7.58;;;;;;;22.25;61.06;101537.78;2304200;76;51472;-78
2023/09/27 06:01:53;;;;;;;20.40;8.33;;;;;;;22.24;61.04;101546.88;2309143;76;51023;-77
2023/09/27 06:04:55;;;;;;;18.50;7.78;;;;;;;22.23;61.04;101554.13;2279728;76;50644;-77
2023/09/27 06:07:58;;;;;;;27.20;8.75;;;;;;;22.23;61.02;101556.00;2305917;76;51582;-78
2023/09/27 06:11:00;;;;;;;20.10;8.05;;;;;;;22.22;60.92;101551.13;2281467;75;52406;-77
2023/09/27 06:14:02;;;;;;;18.73;8.35;;;;;;;22.21;60.86;101557.52;2306902;75;50601;-77
2023/09/27 06:17:05;;;;;;;26.27;8.93;;;;;;;22.26;60.67;101557.80;2305758;76;50433;-78
2023/09/27 06:20:12;;;;;;;17.77;8.68;;;;;;;22.34;60.72;101566.31;2280900;76;51526;-78
2023/09/27 06:23:12;;;;;;;28.32;8.98;;;;;;;22.37;60.61;101558.67;2319854;75;22304;-77
2023/09/27 06:26:14;;;;;;;17.57;7.70;;;;;;;22.37;60.59;101561.89;2251200;76;52546;-77
2023/09/27 06:29:19;;;;;;;22.17;8.18;;;;;;;22.37;60.42;101561.38;2317627;76;50774;-78
2023/09/27 06:32:22;;;;;;;26.75;8.55;;;;;;;22.38;60.39;101565.76;2292062;76;22473;-78
2023/09/27 06:35:24;;;;;;;20.17;7.65;;;;;;;22.41;60.38;101563.20;2318965;75;50853;-77
2023/09/27 06:38:27;;;;;;;23.22;8.13;;;;;;;22.43;60.23;101561.65;2291115;76;51397;-77
2023/09/27 06:41:29;;;;;;;26.07;8.63;;;;;;;22.43;60.26;101569.73;2317037;76;51397;-78
2023/09/27 06:44:33;;;;;;;20.35;7.47;;;;;;;22.44;60.21;101572.78;2317915;76;51435;-77
2023/09/27 06:47:36;;;;;;;18.27;7.90;;;;;;;22.45;60.18;101563.66;2318576;76;22323;-77
2023/09/27 06:50:41;;;;;;;19.67;7.83;;;;;;;22.49;60.09;101566.31;2292497;76;52166;-77
2023/09/27 06:53:44;;;;;;;15.20;7.50;;;;;;;22.50;60.04;101566.63;2316707;76;50704;-77
2023/09/27 06:56:46;;;;;;;19.87;8.65;;;;;;;22.51;59.91;101564.27;2321845;76;51444;-77
2023/09/27 06:59:49;;;;;;;17.90;7.62;;;;;;;22.53;59.89;101564.41;2306235;76;52374;-77
2023/09/27 07:02:54;;;;;;;18.62;7.78;;;;;;;22.54;59.84;101571.47;2306309;76;51498;-76
2023/09/27 07:05:57;;;;;;;15.63;7.72;;;;;;;22.57;59.78;101575.13;2318722;75;51454;-77
2023/09/27 07:08:59;;;;;;;16.40;7.67;;;;;;;22.58;59.70;101563.83;2306394;76;51614;-77
2023/09/27 07:12:02;;;;;;;17.92;8.15;;;;;;;22.59;59.65;101565.00;2318470;76;51582;-78
2023/09/27 07:15:12;;;;;;;13.80;7.53;;;;;;;22.61;59.57;101566.17;2305913;76;51631;-76
2023/09/27 07:18:09;;;;;;;15.32;7.20;;;;;;;22.65;59.44;101563.92;2282011;76;22315;-77
2023/09/27 07:21:11;;;;;;;15.80;8.08;;;;;;;22.66;59.64;101566.45;2309661;75;51543;-76
2023/09/27 07:24:14;;;;;;;23.27;8.08;;;;;;;22.65;59.67;101557.18;2294668;75;50058;-78
2023/09/27 07:27:16;;;;;;;21.42;7.95;;;;;;;22.63;59.96;101558.70;2312295;76;50456;-78
2023/09/27 07:30:23;;;;;;;18.62;8.20;;;;;;;22.65;59.89;101559.36;2286095;77;52322;-78
2023/09/27 07:33:23;;;;;;;21.55;8.18;;;;;;;22.66;59.93;101564.23;2269395;78;22824;-78
2023/09/27 07:36:25;;;;;;;24.55;8.55;;;;;;;22.69;59.78;101564.72;2295763;76;50511;-77
2023/09/27 07:39:27;;;;;;;19.70;7.70;;;;;;;22.71;59.76;101557.77;2253059;76;51150;-78
2023/09/27 07:42:29;;;;;;;21.87;8.08;;;;;;;22.71;59.71;101547.83;2300236;76;50351;-77
2023/09/27 07:45:35;;;;;;;17.80;7.65;;;;;;;22.72;59.64;101543.27;2276635;76;50663;-77
2023/09/27 07:48:39;;;;;;;28.47;8.80;;;;;;;22.73;59.65;101544.93;2303202;75;22422;-76
2023/09/27 07:51:40;;;;;;;25.72;8.68;;;;;;;22.69;59.98;101553.92;2287372;76;22351;-76
2023/09/27 07:54:42;;;;;;;20.68;8.18;;;;;;;22.70;60.05;101550.19;2283325;76;51450;-77
2023/09/27 07:57:45;;;;;;;20.65;8.10;;;;;;;22.71;60.00;101551.87;2317930;76;51402;-75
2023/09/27 08:00:47;;;;;;;18.50;8.05;;;;;;;22.70;60.05;101555.59;2291411;76;50662;-76
2023/09/27 08:04:00;;;;;;;21.33;8.00;;;;;;;22.71;60.05;101556.41;2296644;76;50210;-76
2023/09/27 08:06:54;;;;;;;25.10;8.58;;;;;;;22.72;59.98;101543.27;2288764;76;22327;-77
2023/09/27 08:09:56;;;;;;;24.00;8.43;;;;;;;22.71;59.99;101547.83;2318580;76;50388;-76
2023/09/27 08:12:58;;;;;;;20.35;8.33;;;;;;;22.74;59.86;101555.55;2291256;76;50710;-77
2023/09/27 08:16:03;;;;;;;14.23;8.43;;;;;;;22.75;59.78;101552.33;2317368;76;51422;-76
2023/09/27 08:19:04;;;;;;;17.15;8.30;;;;;;;22.73;59.75;101556.55;2317115;76;22313;-76
2023/09/27 08:22:09;;;;;;;21.70;7.78;;;;;;;22.71;59.95;101545.14;2280205;75;50760;-76
2023/09/27 08:25:17;;;;;;;17.73;8.20;;;;;;;22.71;59.93;101551.87;2296870;76;51717;-76
2023/09/27 08:28:21;;;;;;;26.65;8.43;;;;;;;22.72;59.82;101552.19;2279351;76;51145;-77
2023/09/27 08:31:23;;;;;;;19.73;8.80;;;;;;;22.74;59.76;101554.20;2305681;76;50792;-77
2023/09/27 08:34:25;;;;;;;16.97;8.60;;;;;;;22.74;59.69;101554.20;2285637;76;51495;-77
2023/09/27 08:37:28;;;;;;;20.15;8.98;;;;;;;22.75;59.62;101545.06;2284850;76;52329;-77
2023/09/27 08:40:30;;;;;;;17.40;7.62;;;;;;;22.75;59.59;101552.33;2298003;76;51571;-78
2023/09/27 08:43:33;;;;;;;30.32;8.88;;;;;;;22.75;59.55;101550.46;2283039;76;50723;-78
2023/09/27 08:46:36;;;;;;;20.75;8.55;;;;;;;22.72;59.64;101553.54;2282944;76;51591;-77
2023/09/27 08:49:38;;;;;;;19.02;7.78;;;;;;;22.74;59.59;101563.64;2298177;76;50299;-78
2023/09/27 08:52:43;;;;;;;27.30;9.10;;;;;;;22.74;59.61;101557.41;2273127;77;52470;-78
2023/09/27 08:55:48;;;;;;;17.65;8.28;;;;;;;22.74;59.57;101556.06;2280600;76;52708;-78
2023/09/27 08:58:51;;;;;;;14.18;8.05;;;;;;;22.72;59.63;101556.23;2299004;76;51537;-79
2023/09/27 09:01:53;;;;;;;13.22;8.00;;;;;;;22.72;59.62;101554.89;2282616;76;51208;-78
2023/09/27 09:04:56;;;;;;;15.28;7.53;;;;;;;22.71;59.58;101557.28;2301167;75;50693;-79
2023/09/27 09:08:01;;;;;;;19.40;8.33;;;;;;;22.71;59.58;101555.06;2283533;77;50052;-78
2023/09/27 09:11:06;;;;;;;15.98;7.97;;;;;;;22.72;59.51;101552.19;2280433;76;51591;-78
2023/09/27 09:14:10;;;;;;;18.40;7.97;;;;;;;22.76;59.39;101552.64;2271087;76;22399;-77
2023/09/27 09:17:17;;;;;;;17.57;7.72;;;;;;;22.75;59.37;101547.77;2247235;76;22335;-77
2023/09/27 09:20:20;;;;;;;15.90;8.00;;;;;;;22.75;59.30;101543.72;2269187;78;22686;-77
2023/09/27 09:23:31;;;;;;;17.20;7.72;;;;;;;22.75;59.31;101542.36;2277997;76;22322;-78
2023/09/27 09:26:33;;;;;;;14.75;7.87;;;;;;;22.75;59.27;101538.31;2288908;76;51335;-76
2023/09/27 09:29:46;;;;;;;17.40;7.92;;;;;;;22.73;59.31;101551.16;2278897;77;51508;-76
2023/09/27 09:32:54;;;;;;;16.15;7.70;;;;;;;22.75;59.25;101538.84;2322605;76;50767;-77
2023/09/27 09:35:53;;;;;;;17.20;7.37;;;;;;;22.73;59.24;101534.14;2304913;76;22303;-75
2023/09/27 09:39:05;;;;;;;16.87;7.08;;;;;;;22.74;59.25;101533.12;2319092;76;50647;-76
2023/09/27 09:42:08;;;;;;;15.63;7.28;;;;;;;22.71;59.29;101533.00;2305643;76;52445;-78
2023/09/27 09:45:12;;;;;;;13.88;7.95;;;;;;;22.72;59.24;101534.66;2306874;75;50749;-78
2023/09/27 09:48:14;;;;;;;13.78;7.53;;;;;;;22.70;59.25;101534.00;2330101;76;50264;-76
2023/09/27 09:51:16;;;;;;;15.43;7.67;;;;;;;22.71;59.22;101521.34;2301743;75;52637;-76
2023/09/27 09:54:57;;;;;;;13.08;7.75;;;;;;;22.70;59.20;101518.33;2318965;76;51356;-76
2023/09/27 09:57:46;;;;;;;14.43;7.95;;;;;;;22.70;59.19;101515.64;2315130;76;22489;-78
2023/09/27 10:00:49;;;;;;;11.20;7.55;;;;;;;22.67;59.21;101514.16;2319048;76;51629;-77
2023/09/27 10:03:52;;;;;;;12.80;7.42;;;;;;;22.70;59.15;101523.21;2318727;76;51616;-77
2023/09/27 10:06:55;;;;;;;12.47;7.78;;;;;;;22.68;59.14;101514.47;2306876;76;51682;-77
2023/09/27 10:09:57;;;;;;;11.75;7.05;;;;;;;22.67;59.15;101516.85;2319000;75;51538;-76
2023/09/27 10:13:00;;;;;;;14.63;7.83;;;;;;;22.69;59.09;101505.88;2318964;76;49852;-77
2023/09/27 10:16:08;;;;;;;11.63;7.60;;;;;;;22.68;59.10;101505.54;2278830;76;51640;-76
2023/09/27 10:19:07;;;;;;;15.48;7.78;;;;;;;22.66;59.14;101505.75;2305353;76;22147;-77
2023/09/27 10:22:14;;;;;;;13.58;7.20;;;;;;;22.66;59.12;101500.35;2283529;76;51525;-78
2023/09/27 10:25:30;;;;;;;10.53;7.17;;;;;;;22.65;59.12;101495.96;2248890;77;22408;-77
2023/09/27 10:28:32;;;;;;;12.90;7.05;;;;;;;22.66;59.08;101488.70;2272520;77;50759;-77
2023/09/27 10:31:40;;;;;;;11.97;7.10;;;;;;;22.64;59.09;101491.61;2247099;78;51153;-78
2023/09/27 10:34:43;;;;;;;13.62;7.40;;;;;;;22.66;59.02;101490.91;2272043;76;50333;-77
2023/09/27 10:38:08;;;;;;;8.78;6.85;;;;;;;22.66;58.98;101478.77;2295131;76;50370;-75
2023/09/27 10:41:05;;;;;;;11.33;6.30;;;;;;;22.65;58.98;101473.03;2285951;76;23392;-76
2023/09/27 10:44:09;;;;;;;12.00;6.80;;;;;;;22.65;58.96;101468.98;2303513;76;22326;-76
2023/09/27 10:47:13;;;;;;;12.03;7.12;;;;;;;22.66;58.90;101476.08;2317208;76;51450;-75
2023/09/27 10:50:16;;;;;;;15.25;7.30;;;;;;;22.64;58.97;101467.84;2319087;76;22186;-77
2023/09/27 10:53:18;;;;;;;12.35;6.97;;;;;;;22.65;58.90;101460.89;2291122;76;51530;-76
2023/09/27 10:56:21;;;;;;;12.47;6.97;;;;;;;22.63;58.90;101456.20;2261032;76;51156;-76
2023/09/27 10:59:29;;;;;;;12.05;7.42;;;;;;;22.65;58.88;101457.37;2319102;76;51340;-77
2023/09/27 11:02:32;;;;;;;13.60;6.90;;;;;;;22.64;58.88;101459.23;2291508;76;51543;-78
2023/09/27 11:05:35;;;;;;;9.23;6.62;;;;;;;22.65;58.83;101455.50;2291977;76;51591;-78
2023/09/27 11:08:38;;;;;;;9.68;7.15;;;;;;;22.65;58.82;101462.77;2292087;76;50327;-76
2023/09/27 11:11:44;;;;;;;11.05;7.00;;;;;;;22.66;58.77;101457.19;2318739;76;50626;-75
2023/09/27 11:14:46;;;;;;;12.15;7.12;;;;;;;22.64;58.79;101449.80;2297236;76;52482;-78
2023/09/27 11:17:56;;;;;;;12.50;7.25;;;;;;;22.64;58.74;101448.44;2319217;75;50571;-79
2023/09/27 11:21:01;;;;;;;11.80;6.87;;;;;;;22.66;58.68;101439.66;2306082;76;51441;-77
2023/09/27 11:24:04;;;;;;;11.10;6.67;;;;;;;22.64;58.73;101448.44;2303594;76;51835;-77
2023/09/27 11:27:08;;;;;;;8.48;6.12;;;;;;;22.62;58.73;101439.70;2305630;76;51618;-77
2023/09/27 11:30:11;;;;;;;13.28;6.65;;;;;;;22.64;58.63;101438.17;2318052;75;50691;-77
2023/09/27 11:33:16;;;;;;;9.20;6.75;;;;;;;22.65;58.60;101439.31;2305422;75;51624;-77
2023/09/27 11:36:17;;;;;;;10.90;6.25;;;;;;;22.65;58.57;101441.19;2319373;76;22230;-78
2023/09/27 11:39:20;;;;;;;13.43;6.47;;;;;;;22.64;58.54;101444.40;2306921;75;52472;-78
2023/09/27 11:42:27;;;;;;;10.40;7.05;;;;;;;22.61;58.58;101444.78;2332676;75;51437;-78
2023/09/27 11:45:33;;;;;;;10.25;6.42;;;;;;;22.62;58.55;101439.70;2308789;76;51514;-78
2023/09/27 11:48:36;;;;;;;11.73;6.55;;;;;;;22.66;58.44;101443.70;2242788;76;50961;-77
2023/09/27 11:51:38;;;;;;;10.53;6.97;;;;;;;22.67;58.33;101433.22;2291268;76;51431;-77
2023/09/27 11:54:45;;;;;;;9.58;6.30;;;;;;;22.70;58.25;101441.45;2318677;75;51592;-77
2023/09/27 11:57:44;;;;;;;8.93;6.37;;;;;;;22.69;58.23;101434.39;2291406;76;22314;-77
2023/09/27 12:00:46;;;;;;;11.00;6.95;;;;;;;22.64;58.37;101426.86;2291651;76;50264;-77
2023/09/27 12:03:50;;;;;;;9.83;6.35;;;;;;;22.62;58.46;101419.47;2260905;75;50337;-77
2023/09/27 12:06:53;;;;;;;13.10;6.50;;;;;;;22.60;58.51;101416.13;2291943;76;51546;-76
2023/09/27 12:09:55;;;;;;;7.97;6.50;;;;;;;22.58;58.56;101420.37;2291679;76;51495;-78
2023/09/27 12:12:57;;;;;;;11.55;6.72;;;;;;;22.59;58.58;101414.46;2266475;76;51573;-77
2023/09/27 12:15:59;;;;;;;9.05;6.50;;;;;;;22.58;58.60;101414.13;2291937;76;51447;-77
2023/09/27 12:19:02;;;;;;;10.88;6.97;;;;;;;22.59;58.61;101408.55;2312298;76;51305;-76
2023/09/27 12:22:05;;;;;;;9.75;6.28;;;;;;;22.60;58.58;101410.73;2291904;76;51564;-77
2023/09/27 12:25:07;;;;;;;8.15;5.90;;;;;;;22.63;58.54;101417.60;2289411;76;51519;-77
2023/09/27 12:28:11;;;;;;;10.48;6.65;;;;;;;22.62;58.54;101404.63;2267879;76;49702;-77
2023/09/27 12:31:13;;;;;;;10.28;6.35;;;;;;;22.61;58.55;101393.53;2284015;77;51614;-77
2023/09/27 12:34:16;;;;;;;11.05;6.65;;;;;;;22.64;58.53;101404.45;2309432;76;51469;-76
2023/09/27 12:37:18;;;;;;;7.20;5.85;;;;;;;22.64;58.51;101395.02;2258810;77;52399;-78
2023/09/27 12:40:20;;;;;;;10.90;6.97;;;;;;;22.63;58.54;101383.36;2283994;77;51488;-79
2023/09/27 12:43:22;;;;;;;9.05;5.87;;;;;;;22.64;58.54;101378.31;2305353;76;51461;-78
2023/09/27 12:46:24;;;;;;;10.85;6.85;;;;;;;22.65;58.53;101379.14;2309721;76;51484;-80
2023/09/27 12:49:27;;;;;;;8.63;5.80;;;;;;;22.67;58.48;101378.44;2283752;77;51461;-76
2023/09/27 12:52:29;;;;;;;9.38;6.50;;;;;;;22.68;58.46;101379.58;2305102;76;51539;-78
2023/09/27 12:55:32;;;;;;;10.20;6.58;;;;;;;22.68;58.48;101373.35;2287120;76;51411;-77
2023/09/27 12:58:34;;;;;;;9.30;5.97;;;;;;;22.68;58.50;101376.88;2297319;76;50669;-78
2023/09/27 13:01:37;;;;;;;8.40;6.17;;;;;;;22.70;58.40;101375.34;2268585;78;51269;-77
2023/09/27 13:04:39;;;;;;;10.75;6.45;;;;;;;22.69;58.44;101381.27;2294067;76;50316;-77
2023/09/27 13:07:41;;;;;;;9.33;5.70;;;;;;;22.69;58.49;101373.17;2280629;76;50220;-76
2023/09/27 13:10:43;;;;;;;9.23;6.30;;;;;;;22.70;58.50;101368.08;2294373;77;51445;-77
2023/09/27 13:13:45;;;;;;;8.75;5.92;;;;;;;22.72;58.46;101366.55;2294173;76;51465;-76
2023/09/27 13:16:48;;;;;;;9.08;6.37;;;;;;;22.72;58.46;101359.29;2243975;78;51722;-76
2023/09/27 13:19:53;;;;;;;8.85;6.30;;;;;;;22.73;58.45;101352.03;2280714;78;50264;-77
2023/09/27 13:22:56;;;;;;;8.73;5.62;;;;;;;22.73;58.46;101350.16;2294650;77;51614;-76
2023/09/27 13:25:58;;;;;;;7.72;6.00;;;;;;;22.74;58.43;101345.09;2286127;76;52521;-77
2023/09/27 13:29:01;;;;;;;8.25;5.83;;;;;;;22.75;58.44;101344.06;2286619;76;51677;-76
2023/09/27 13:32:03;;;;;;;8.75;5.62;;;;;;;22.75;58.46;101337.31;2272669;76;51503;-77
2023/09/27 13:35:06;;;;;;;9.80;6.03;;;;;;;22.76;58.47;101330.91;2272581;77;50217;-77
2023/09/27 13:38:08;;;;;;;9.58;6.30;;;;;;;22.77;58.49;101331.73;2274581;77;51457;-79
2023/09/27 13:41:11;;;;;;;9.05;6.20;;;;;;;22.78;58.49;101334.74;2274312;76;50778;-78
2023/09/27 13:44:13;;;;;;;9.25;5.53;;;;;;;22.78;58.51;101329.34;2249822;76;50386;-77
2023/09/27 13:47:15;;;;;;;7.72;6.10;;;;;;;22.78;58.50;101323.42;2273229;76;51495;-78
2023/09/27 13:50:18;;;;;;;7.50;6.03;;;;;;;22.78;58.53;101323.42;2273450;78;51481;-76
2023/09/27 13:53:20;;;;;;;5.92;5.33;;;;;;;22.79;58.53;101327.81;2275639;76;50396;-77
2023/09/27 13:56:23;;;;;;;8.43;6.05;;;;;;;22.78;58.55;101323.95;2292880;76;50628;-77
2023/09/27 13:59:25;;;;;;;8.48;6.42;;;;;;;22.78;58.54;101323.42;2290644;76;51454;-77
2023/09/27 14:02:27;;;;;;;6.20;5.28;;;;;;;22.78;58.54;101322.08;2292814;76;51767;-77
2023/09/27 14:05:29;;;;;;;7.55;6.17;;;;;;;22.79;58.54;101312.97;2292948;76;52480;-77
2023/09/27 14:08:31;;;;;;;8.68;5.85;;;;;;;22.78;58.52;101304.55;2318762;76;51484;-76
2023/09/27 14:11:34;;;;;;;7.60;5.53;;;;;;;22.78;58.51;101308.59;2317063;76;51466;-76